Time;durP1;ratioP1;P1;durP2;ratioP2;P2;SDS_P1;SDS_P2;PMS_P1;PMS_P2;Temp;Humidity;BMP_temperature;BMP_pressure;BME280_temperature;BME280_humidity;BME280_pressure;Samples;Min_cycle;Max_cycle;Signal;HPM_P1;HPM_P2
2022/05/14 00:01:36;;;;;;;7.15;2.63;;;15.90;86.60;;;;;;4995583;28;20030;-71
2022/05/14 00:04:03;;;;;;;6.05;2.20;;;15.90;86.70;;;;;;4995426;28;20049;-71
2022/05/14 00:06:30;;;;;;;7.45;2.35;;;15.90;86.70;;;;;;4994670;28;20046;-71
2022/05/14 00:08:58;;;;;;;7.43;2.58;;;15.90;86.80;;;;;;4995273;28;20389;-71
2022/05/14 00:14:09;;;;;;;7.40;1.85;;;15.90;86.60;;;;;;4995252;28;20128;-71
2022/05/14 00:16:35;;;;;;;7.95;2.33;;;15.80;86.60;;;;;;4995559;28;20041;-71
2022/05/14 00:19:03;;;;;;;9.35;3.47;;;15.80;86.80;;;;;;4994514;28;20100;-71
2022/05/14 00:21:29;;;;;;;9.32;2.80;;;15.80;86.80;;;;;;4993861;28;20084;-71
2022/05/14 00:23:58;;;;;;;13.18;3.45;;;15.80;86.90;;;;;;4995164;28;20125;-71
2022/05/14 00:26:24;;;;;;;9.73;2.95;;;15.80;86.90;;;;;;4995342;28;20062;-71
2022/05/14 00:28:50;;;;;;;11.38;2.45;;;15.90;87.50;;;;;;4995021;28;20049;-71
2022/05/14 00:31:16;;;;;;;5.78;1.67;;;15.80;86.80;;;;;;4995443;28;20034;-71
2022/05/14 00:33:43;;;;;;;12.43;2.40;;;15.90;86.80;;;;;;4995598;28;20544;-70
2022/05/14 00:36:08;;;;;;;8.40;2.20;;;15.90;86.90;;;;;;4995860;28;20030;-71
2022/05/14 00:38:34;;;;;;;13.07;2.40;;;15.80;86.80;;;;;;4994986;28;20508;-70
2022/05/14 00:41:06;;;;;;;11.50;2.30;;;15.90;87.00;;;;;;4994466;28;20030;-71
2022/05/14 00:43:34;;;;;;;14.65;3.83;;;15.80;86.80;;;;;;4995581;28;20097;-71
2022/05/14 00:46:23;;;;;;;15.30;2.55;;;15.90;87.00;;;;;;4995477;28;20121;-71
2022/05/14 00:48:51;;;;;;;9.07;1.58;;;15.80;86.80;;;;;;4994483;28;20468;-71
2022/05/14 00:51:25;;;;;;;4.93;2.17;;;15.90;86.80;;;;;;4995060;28;20501;-71
2022/05/14 00:53:55;;;;;;;6.40;1.40;;;15.80;87.00;;;;;;4992526;28;20110;-71
2022/05/14 00:56:28;;;;;;;8.18;1.90;;;15.80;87.30;;;;;;4995286;28;20093;-71
2022/05/14 00:59:06;;;;;;;9.10;1.85;;;15.70;87.70;;;;;;4993404;28;20034;-70
2022/05/14 01:01:34;;;;;;;17.23;2.45;;;15.70;88.20;;;;;;4994131;28;20076;-71
2022/05/14 01:03:59;;;;;;;14.57;2.03;;;15.70;88.40;;;;;;4994592;28;20035;-71
2022/05/14 01:06:29;;;;;;;14.27;2.72;;;15.60;88.70;;;;;;4994111;28;20070;-71
2022/05/14 01:08:57;;;;;;;8.45;3.03;;;15.60;89.00;;;;;;4992339;28;20130;-71
2022/05/14 01:11:24;;;;;;;2.05;1.20;;;15.60;88.90;;;;;;4992729;28;20041;-71
2022/05/14 01:13:50;;;;;;;14.45;1.92;;;15.50;88.90;;;;;;4994096;28;20062;-71
2022/05/14 01:16:16;;;;;;;14.77;3.38;;;15.50;89.10;;;;;;4993841;28;20438;-71
2022/05/14 01:18:42;;;;;;;10.88;2.63;;;15.50;89.10;;;;;;4992513;28;20093;-71
2022/05/14 01:21:43;;;;;;;8.77;1.98;;;15.50;89.20;;;;;;4993037;28;20062;-71
2022/05/14 01:27:08;;;;;;;5.57;1.67;;;15.50;89.80;;;;;;4993403;28;20029;-71
2022/05/14 01:29:35;;;;;;;7.22;1.98;;;15.50;89.60;;;;;;4993384;28;20034;-71
2022/05/14 01:32:06;;;;;;;6.78;3.47;;;15.50;89.90;;;;;;4992544;28;20022;-71
2022/05/14 01:34:34;;;;;;;7.90;1.63;;;15.40;89.90;;;;;;4992649;28;20031;-71
2022/05/14 01:37:01;;;;;;;11.00;3.40;;;15.40;90.00;;;;;;4989907;28;20061;-71
2022/05/14 01:39:27;;;;;;;6.53;2.05;;;15.50;90.00;;;;;;4993762;28;20069;-71
2022/05/14 01:41:54;;;;;;;6.90;1.70;;;15.40;90.10;;;;;;4992302;28;20709;-71
2022/05/14 01:44:20;;;;;;;9.23;3.30;;;15.40;90.10;;;;;;4991847;28;20038;-71
2022/05/14 01:46:47;;;;;;;1.50;1.33;;;15.40;90.10;;;;;;4993471;28;20045;-71
2022/05/14 01:49:16;;;;;;;9.55;2.63;;;15.40;90.10;;;;;;4993802;28;20030;-71
2022/05/14 01:51:42;;;;;;;16.65;2.25;;;15.40;90.10;;;;;;4991614;28;20041;-71
2022/05/14 01:54:10;;;;;;;5.28;2.22;;;15.40;90.20;;;;;;4993471;28;20113;-71
2022/05/14 01:56:36;;;;;;;7.97;1.92;;;15.40;90.20;;;;;;4992069;28;20041;-71
2022/05/14 01:59:02;;;;;;;2.15;1.48;;;15.40;90.20;;;;;;4992214;28;20022;-71
2022/05/14 02:01:36;;;;;;;7.57;2.10;;;15.40;90.30;;;;;;4992116;28;20085;-71
2022/05/14 02:04:06;;;;;;;4.88;2.72;;;15.30;90.30;;;;;;4992012;28;20039;-71
2022/05/14 02:06:36;;;;;;;5.15;1.67;;;15.40;90.50;;;;;;4992576;28;20042;-71
2022/05/14 02:09:04;;;;;;;3.60;2.33;;;15.30;90.50;;;;;;4992166;28;20026;-71
2022/05/14 02:11:31;;;;;;;4.57;1.60;;;15.30;90.50;;;;;;4991332;28;20113;-71
2022/05/14 02:14:07;;;;;;;25.92;2.90;;;15.30;90.50;;;;;;4991663;28;20046;-71
2022/05/14 02:16:33;;;;;;;5.57;1.88;;;15.30;90.50;;;;;;4992002;28;20466;-71
2022/05/14 02:18:59;;;;;;;2.28;0.85;;;15.30;90.40;;;;;;4992316;28;20041;-71
2022/05/14 02:21:28;;;;;;;18.92;3.65;;;15.30;90.40;;;;;;4991184;28;20052;-71
2022/05/14 02:23:55;;;;;;;15.57;3.20;;;15.30;90.50;;;;;;4978565;28;20030;-71
2022/05/14 02:26:22;;;;;;;7.32;2.40;;;15.40;90.40;;;;;;4991008;28;20141;-71
2022/05/14 02:28:48;;;;;;;16.52;3.17;;;15.40;90.30;;;;;;4987389;28;20036;-71
2022/05/14 02:31:14;;;;;;;18.92;4.15;;;15.40;90.40;;;;;;4984899;28;20026;-71
2022/05/14 02:33:40;;;;;;;15.20;3.13;;;15.40;90.30;;;;;;4990562;28;20030;-71
2022/05/14 02:36:10;;;;;;;18.05;3.05;;;15.30;90.10;;;;;;4991516;28;20041;-71
2022/05/14 02:38:37;;;;;;;17.30;3.72;;;15.30;90.20;;;;;;4992599;28;20038;-71
2022/05/14 02:41:04;;;;;;;20.20;3.78;;;15.40;90.20;;;;;;4992012;28;20026;-71
2022/05/14 02:43:32;;;;;;;3.17;1.55;;;15.30;90.00;;;;;;4991183;28;20093;-71
2022/05/14 02:45:59;;;;;;;5.93;2.75;;;15.30;90.00;;;;;;4990956;28;20117;-71
2022/05/14 02:48:25;;;;;;;7.70;1.95;;;15.30;90.00;;;;;;4990816;28;20042;-71
2022/05/14 02:50:52;;;;;;;8.27;1.88;;;15.30;90.00;;;;;;4987581;28;20532;-70
2022/05/14 02:53:21;;;;;;;5.68;1.40;;;15.20;90.10;;;;;;4990939;28;20030;-71
2022/05/14 02:55:47;;;;;;;8.57;2.05;;;15.20;90.10;;;;;;4990325;28;20536;-71
2022/05/14 02:58:13;;;;;;;11.95;2.53;;;15.20;90.10;;;;;;4990611;28;20117;-71
2022/05/14 03:00:58;;;;;;;5.07;1.83;;;15.10;90.20;;;;;;4991804;28;20089;-71
2022/05/14 03:03:24;;;;;;;26.73;4.90;;;15.10;90.20;;;;;;4992324;28;20046;-71
2022/05/14 03:05:50;;;;;;;10.63;2.63;;;15.10;90.40;;;;;;4991684;28;20038;-71
2022/05/14 03:08:19;;;;;;;15.23;3.28;;;15.10;90.30;;;;;;4990108;28;20381;-71
2022/05/14 03:10:48;;;;;;;11.13;3.08;;;15.00;90.20;;;;;;4991785;28;20062;-71
2022/05/14 03:13:13;;;;;;;17.10;4.47;;;15.00;90.20;;;;;;4992222;28;20096;-71
2022/05/14 03:15:39;;;;;;;10.23;2.55;;;15.00;90.30;;;;;;4989978;28;20413;-71
2022/05/14 03:18:05;;;;;;;10.55;2.55;;;15.00;90.20;;;;;;4992267;28;20034;-71
2022/05/14 03:20:31;;;;;;;8.85;2.85;;;15.00;90.20;;;;;;4991727;28;20051;-71
2022/05/14 03:22:59;;;;;;;11.15;2.58;;;14.90;90.20;;;;;;4991137;28;20042;-71
2022/05/14 03:25:25;;;;;;;16.77;3.55;;;14.90;90.20;;;;;;4990720;28;20046;-71
2022/05/14 03:27:51;;;;;;;25.27;4.45;;;14.90;90.20;;;;;;4991632;28;20029;-71
2022/05/14 03:30:18;;;;;;;13.98;3.17;;;14.90;90.20;;;;;;4991214;28;20026;-70
2022/05/14 03:32:44;;;;;;;14.63;3.60;;;14.90;90.10;;;;;;4991258;28;20474;-71
2022/05/14 03:35:10;;;;;;;9.10;2.70;;;14.90;90.10;;;;;;4991334;28;20089;-71
2022/05/14 03:37:36;;;;;;;10.77;2.97;;;14.90;90.00;;;;;;4990399;28;20026;-71
2022/05/14 03:40:03;;;;;;;16.13;3.75;;;14.90;90.00;;;;;;4991892;28;20030;-71
2022/05/14 03:42:31;;;;;;;15.35;2.88;;;14.90;90.10;;;;;;4991242;28;20042;-71
2022/05/14 03:44:58;;;;;;;17.25;4.72;;;14.80;90.10;;;;;;4989462;28;20039;-71
2022/05/14 03:47:23;;;;;;;6.80;2.67;;;14.80;90.10;;;;;;4990366;28;20026;-71
2022/05/14 03:49:49;;;;;;;9.82;3.55;;;14.80;90.10;;;;;;4988580;28;20069;-71
2022/05/14 03:52:15;;;;;;;11.43;2.30;;;14.70;90.10;;;;;;4990340;28;20031;-71
2022/05/14 03:54:45;;;;;;;12.93;3.33;;;14.80;90.10;;;;;;4990776;28;20033;-71
2022/05/14 03:57:12;;;;;;;10.07;2.58;;;14.70;90.20;;;;;;4989654;28;20026;-71
2022/05/14 03:59:38;;;;;;;15.35;3.80;;;14.70;90.20;;;;;;4990931;28;20030;-71
2022/05/14 04:02:05;;;;;;;14.40;3.65;;;14.70;90.20;;;;;;4991833;28;20031;-71
2022/05/14 04:04:34;;;;;;;22.23;5.35;;;14.70;90.20;;;;;;4990071;28;20446;-71
2022/05/14 04:07:00;;;;;;;14.80;3.00;;;14.60;90.30;;;;;;4990504;28;20074;-72
2022/05/14 04:09:31;;;;;;;7.10;1.98;;;14.70;90.10;;;;;;4991687;28;20030;-71
2022/05/14 04:11:57;;;;;;;11.02;3.60;;;14.60;90.10;;;;;;4990789;28;20018;-71
2022/05/14 04:14:24;;;;;;;12.98;3.90;;;14.60;90.20;;;;;;4990750;28;20041;-71
2022/05/14 04:16:52;;;;;;;27.30;4.80;;;14.60;90.30;;;;;;4990176;28;20034;-71
2022/05/14 04:19:19;;;;;;;26.13;3.70;;;14.60;90.30;;;;;;4990700;28;20057;-71
2022/05/14 04:21:46;;;;;;;4.53;1.95;;;14.50;90.20;;;;;;4989503;28;20056;-71
2022/05/14 04:24:12;;;;;;;15.93;3.28;;;14.50;90.20;;;;;;4991366;28;20038;-71
2022/05/14 04:26:38;;;;;;;19.63;5.10;;;14.50;90.20;;;;;;4989535;28;20031;-71
2022/05/14 04:29:04;;;;;;;17.65;3.50;;;14.50;90.30;;;;;;4990348;28;20081;-72
2022/05/14 04:31:31;;;;;;;17.52;3.60;;;14.50;90.20;;;;;;4988493;28;20482;-71
2022/05/14 04:33:57;;;;;;;19.15;2.72;;;14.50;90.30;;;;;;4987226;28;20121;-70
2022/05/14 04:36:23;;;;;;;13.63;3.08;;;14.50;90.20;;;;;;4989102;28;20109;-71
2022/05/14 04:38:50;;;;;;;4.88;2.13;;;14.50;90.30;;;;;;4986916;28;20026;-71
2022/05/14 04:41:18;;;;;;;31.23;3.72;;;14.50;90.30;;;;;;4995130;28;20474;-71
2022/05/14 04:43:44;;;;;;;23.08;3.45;;;14.50;90.40;;;;;;4986487;28;20039;-70
2022/05/14 04:46:10;;;;;;;1.80;1.60;;;14.50;90.40;;;;;;4990191;28;20026;-72
2022/05/14 04:48:37;;;;;;;13.88;3.30;;;14.40;90.40;;;;;;4986991;28;20052;-71
2022/05/14 04:51:04;;;;;;;18.40;3.67;;;14.40;90.50;;;;;;4991838;28;20038;-71
2022/05/14 04:53:30;;;;;;;8.70;2.97;;;14.50;90.50;;;;;;4982720;28;20030;-71
2022/05/14 04:55:56;;;;;;;13.10;3.17;;;14.40;90.50;;;;;;4985710;28;20030;-71
2022/05/14 04:58:22;;;;;;;8.05;2.65;;;14.40;90.50;;;;;;4991469;28;20033;-71
2022/05/14 05:00:49;;;;;;;19.65;3.95;;;14.40;90.60;;;;;;4990475;28;20045;-71
2022/05/14 05:03:17;;;;;;;8.90;3.33;;;14.40;90.80;;;;;;4990441;28;20172;-72
2022/05/14 05:05:52;;;;;;;15.35;2.88;;;14.40;90.80;;;;;;4991817;28;20069;-71
2022/05/14 05:08:19;;;;;;;7.28;3.15;;;14.40;91.00;;;;;;4987983;28;20113;-71
2022/05/14 05:10:45;;;;;;;10.95;3.58;;;14.30;91.00;;;;;;4991960;28;20054;-70
2022/05/14 05:13:16;;;;;;;13.10;2.65;;;14.30;91.10;;;;;;4993546;28;20034;-71
2022/05/14 05:15:45;;;;;;;24.30;4.35;;;14.30;91.20;;;;;;4985013;28;20030;-71
2022/05/14 05:18:12;;;;;;;21.50;4.78;;;14.30;91.30;;;;;;4988986;28;20089;-71
2022/05/14 05:20:40;;;;;;;12.55;3.47;;;14.30;91.40;;;;;;4992625;28;20030;-70
2022/05/14 05:23:07;;;;;;;12.10;2.88;;;14.30;91.30;;;;;;4993508;28;20054;-71
2022/05/14 05:25:33;;;;;;;21.92;3.67;;;14.30;91.30;;;;;;4994444;28;20814;-72
2022/05/14 05:27:59;;;;;;;20.55;3.58;;;14.40;91.50;;;;;;4993789;28;20050;-76
2022/05/14 05:30:25;;;;;;;19.85;4.07;;;14.40;91.50;;;;;;4993594;28;20112;-73
2022/05/14 05:32:51;;;;;;;27.23;4.38;;;14.40;91.40;;;;;;4990815;28;20026;-74
2022/05/14 05:35:16;;;;;;;21.73;5.57;;;14.40;91.40;;;;;;4991314;28;20081;-70
2022/05/14 05:37:42;;;;;;;11.90;3.72;;;14.50;91.50;;;;;;4993270;28;20038;-71
2022/05/14 05:40:08;;;;;;;21.20;4.18;;;14.50;91.30;;;;;;4993409;28;20481;-73
2022/05/14 05:42:36;;;;;;;21.23;3.83;;;14.60;91.40;;;;;;4992198;28;20521;-75
2022/05/14 05:45:02;;;;;;;14.93;4.78;;;14.60;91.60;;;;;;4992862;28;20046;-75
2022/05/14 05:47:28;;;;;;;13.57;2.67;;;14.60;91.60;;;;;;4992640;28;20068;-74
2022/05/14 05:49:53;;;;;;;20.70;3.72;;;14.60;91.60;;;;;;4991777;28;20096;-74
2022/05/14 05:52:19;;;;;;;26.27;4.38;;;14.60;91.60;;;;;;4991902;28;20050;-70
2022/05/14 05:57:38;;;;;;;17.10;2.42;;;14.60;91.70;;;;;;4990113;28;20022;-68
2022/05/14 06:00:10;;;;;;;24.73;3.15;;;14.70;91.80;;;;;;4991590;28;20037;-70
2022/05/14 06:02:38;;;;;;;8.13;2.38;;;14.60;91.80;;;;;;4991409;28;20099;-70
2022/05/14 06:05:05;;;;;;;12.70;2.65;;;14.70;91.90;;;;;;4991665;28;20054;-73
2022/05/14 06:07:32;;;;;;;13.02;2.80;;;14.70;92.00;;;;;;4993069;28;20033;-76
2022/05/14 06:09:58;;;;;;;4.85;2.25;;;14.70;92.10;;;;;;4991069;28;20030;-74
2022/05/14 06:12:24;;;;;;;12.68;2.75;;;14.70;92.20;;;;;;4990302;28;20489;-70
2022/05/14 06:14:50;;;;;;;12.63;3.30;;;14.70;92.30;;;;;;4990527;28;20413;-69
2022/05/14 06:17:16;;;;;;;19.38;3.05;;;14.70;92.40;;;;;;4992724;28;20034;-69
2022/05/14 06:19:42;;;;;;;10.63;2.60;;;14.70;92.50;;;;;;4991958;28;20030;-69
2022/05/14 06:22:08;;;;;;;11.25;2.60;;;14.80;92.40;;;;;;4993039;28;20034;-69
2022/05/14 06:24:36;;;;;;;20.30;3.72;;;14.80;92.40;;;;;;4992124;28;20568;-70
2022/05/14 06:27:03;;;;;;;7.22;2.03;;;14.80;92.50;;;;;;4992544;28;20030;-69
2022/05/14 06:29:31;;;;;;;2.95;1.13;;;14.80;92.50;;;;;;4992822;28;20058;-70
2022/05/14 06:31:57;;;;;;;28.25;4.60;;;14.90;92.50;;;;;;4991695;28;20046;-69
2022/05/14 06:34:23;;;;;;;14.48;3.55;;;14.80;92.50;;;;;;4992816;28;20052;-70
2022/05/14 06:36:52;;;;;;;29.55;5.72;;;14.90;92.30;;;;;;4990437;28;20038;-69
2022/05/14 06:39:20;;;;;;;13.00;3.15;;;14.90;92.30;;;;;;4989069;28;20545;-68
2022/05/14 06:41:48;;;;;;;16.17;3.00;;;15.00;92.10;;;;;;4990150;28;20531;-71
2022/05/14 06:44:16;;;;;;;21.15;3.92;;;15.00;92.00;;;;;;4990849;28;20085;-71
2022/05/14 06:46:42;;;;;;;13.05;3.40;;;15.10;92.00;;;;;;4988912;28;20482;-68
2022/05/14 06:49:34;;;;;;;19.88;3.63;;;15.10;92.00;;;;;;4988687;28;20057;-71
2022/05/14 06:52:03;;;;;;;21.88;3.50;;;15.20;91.90;;;;;;4990042;28;20485;-69
2022/05/14 06:54:37;;;;;;;19.55;4.13;;;15.30;91.70;;;;;;4988634;28;20070;-69
2022/05/14 06:57:09;;;;;;;24.13;4.13;;;15.30;91.80;;;;;;4990865;28;20080;-68
2022/05/14 06:59:36;;;;;;;29.52;5.53;;;15.40;91.60;;;;;;4989925;28;20042;-69
2022/05/14 07:02:03;;;;;;;23.90;4.32;;;15.40;91.60;;;;;;4990905;28;20466;-71
2022/05/14 07:07:17;;;;;;;17.50;3.95;;;15.50;91.40;;;;;;4990312;28;20104;-71
2022/05/14 07:09:43;;;;;;;14.48;3.25;;;15.60;91.40;;;;;;4988681;28;20038;-71
2022/05/14 07:12:09;;;;;;;22.67;3.72;;;15.60;91.30;;;;;;4989688;28;20034;-70
2022/05/14 07:14:40;;;;;;;18.10;3.65;;;15.80;91.00;;;;;;4988234;28;20035;-69
2022/05/14 07:17:08;;;;;;;41.38;4.97;;;15.80;91.00;;;;;;4989709;28;20029;-69
2022/05/14 07:19:35;;;;;;;19.10;3.80;;;15.80;90.50;;;;;;4990098;28;20113;-68
2022/05/14 07:22:01;;;;;;;12.52;3.05;;;15.90;90.30;;;;;;4988862;28;20038;-69
2022/05/14 07:24:29;;;;;;;17.55;3.35;;;16.00;90.10;;;;;;4989976;28;20042;-70
2022/05/14 07:26:57;;;;;;;22.98;3.40;;;16.00;90.00;;;;;;4990374;28;20092;-68
2022/05/14 07:29:25;;;;;;;20.67;3.95;;;16.10;89.70;;;;;;4990482;28;20397;-68
2022/05/14 07:31:52;;;;;;;19.40;3.22;;;16.10;89.20;;;;;;4990831;28;20031;-68
2022/05/14 07:34:17;;;;;;;16.30;2.85;;;16.10;89.00;;;;;;4990811;28;20057;-69
2022/05/14 07:36:52;;;;;;;18.08;3.67;;;16.20;88.80;;;;;;4989872;28;20042;-68
2022/05/14 07:39:19;;;;;;;19.20;3.22;;;16.20;88.60;;;;;;4990599;28;20026;-70
2022/05/14 07:41:53;;;;;;;19.55;3.38;;;16.30;87.60;;;;;;4989269;28;20490;-70
2022/05/14 07:44:21;;;;;;;13.20;2.85;;;16.40;87.50;;;;;;4987405;28;20505;-69
2022/05/14 07:46:49;;;;;;;20.98;3.75;;;16.50;87.40;;;;;;4989829;28;20201;-68
2022/05/14 07:49:16;;;;;;;24.33;4.28;;;16.60;86.20;;;;;;4991006;28;20394;-68
2022/05/14 07:51:45;;;;;;;18.77;3.88;;;16.50;86.10;;;;;;4990450;28;20058;-68
2022/05/14 07:54:11;;;;;;;16.35;3.80;;;16.60;86.20;;;;;;4990597;28;20049;-69
2022/05/14 07:56:38;;;;;;;17.38;3.53;;;16.60;86.20;;;;;;4989262;28;20482;-69
2022/05/14 07:59:04;;;;;;;9.45;1.95;;;16.60;86.40;;;;;;4990920;28;20038;-68
2022/05/14 08:01:30;;;;;;;13.52;3.03;;;16.60;87.00;;;;;;4990577;28;20034;-68
2022/05/14 08:03:56;;;;;;;18.70;2.53;;;16.70;85.90;;;;;;4989944;28;20050;-68
2022/05/14 08:06:22;;;;;;;16.92;3.72;;;16.70;85.70;;;;;;4990186;28;20438;-69
2022/05/14 08:08:48;;;;;;;14.82;3.28;;;16.70;85.90;;;;;;4990432;28;20031;-69
2022/05/14 08:11:14;;;;;;;17.08;3.70;;;16.70;85.10;;;;;;4990300;28;20030;-69
2022/05/14 08:13:40;;;;;;;7.13;1.58;;;16.80;85.40;;;;;;4978071;28;20042;-69
2022/05/14 08:16:06;;;;;;;23.00;4.13;;;16.80;85.50;;;;;;4990592;28;20038;-69
2022/05/14 08:18:32;;;;;;;19.23;3.60;;;16.80;85.60;;;;;;4989693;28;20389;-69
2022/05/14 08:24:29;;;;;;;13.77;3.75;;;16.90;85.00;;;;;;4993167;28;20022;-68
2022/05/14 08:26:28;;;;;;;19.48;3.28;;;16.90;85.20;;;;;;4994216;28;20553;-69
2022/05/14 08:28:53;;;;;;;17.27;3.72;;;16.90;84.90;;;;;;4993880;28;20129;-69
2022/05/14 08:31:19;;;;;;;19.95;3.08;;;16.90;85.30;;;;;;4993599;28;20085;-69
2022/05/14 08:33:44;;;;;;;15.85;3.28;;;16.90;85.30;;;;;;4994140;28;20042;-69
2022/05/14 08:36:11;;;;;;;18.83;3.92;;;16.90;85.40;;;;;;4993951;28;20026;-73
2022/05/14 08:38:39;;;;;;;17.60;3.83;;;16.90;85.10;;;;;;4993026;28;20095;-75
2022/05/14 08:41:05;;;;;;;17.48;3.55;;;17.00;85.10;;;;;;4992063;28;20023;-75
2022/05/14 08:43:49;;;;;;;19.40;3.97;;;17.00;84.70;;;;;;4994024;28;20068;-75
2022/05/14 08:46:21;;;;;;;20.33;3.60;;;17.00;84.50;;;;;;4990619;28;20096;-75
2022/05/14 08:48:57;;;;;;;22.67;3.45;;;17.10;84.30;;;;;;4993729;28;20488;-75
2022/05/14 08:51:30;;;;;;;16.10;3.25;;;17.10;84.50;;;;;;4993793;28;20030;-74
2022/05/14 08:53:56;;;;;;;25.97;4.07;;;17.20;85.10;;;;;;4989121;28;20186;-74
2022/05/14 08:56:43;;;;;;;14.18;3.35;;;17.20;84.50;;;;;;4994742;28;20041;-75
2022/05/14 08:59:39;;;;;;;18.67;3.55;;;17.30;84.20;;;;;;4994467;28;20030;-75
2022/05/14 09:02:27;;;;;;;22.40;4.72;;;17.30;83.90;;;;;;4990931;28;20490;-75
2022/05/14 09:05:09;;;;;;;19.58;4.60;;;17.30;83.60;;;;;;4980826;28;20497;-69
2022/05/14 09:07:36;;;;;;;19.83;4.40;;;17.40;83.40;;;;;;4992036;28;20517;-69
2022/05/14 09:10:05;;;;;;;13.43;3.20;;;17.40;83.60;;;;;;4983470;28;20816;-69
2022/05/14 09:12:34;;;;;;;17.52;3.53;;;17.50;84.70;;;;;;4987308;28;20066;-69
2022/05/14 09:15:11;;;;;;;20.38;3.63;;;17.50;83.70;;;;;;4992592;28;20026;-69
2022/05/14 09:17:37;;;;;;;13.60;3.05;;;17.60;84.20;;;;;;4989437;28;20041;-69
2022/05/14 09:20:05;;;;;;;19.85;4.18;;;17.60;83.60;;;;;;4992138;28;20034;-69
2022/05/14 09:22:53;;;;;;;22.83;4.90;;;17.60;83.20;;;;;;4990357;28;20529;-69
2022/05/14 09:25:24;;;;;;;16.45;3.50;;;17.80;83.10;;;;;;4993255;28;20393;-69
2022/05/14 09:28:08;;;;;;;16.10;3.53;;;17.70;83.00;;;;;;4987589;28;20397;-69
2022/05/14 09:30:41;;;;;;;8.38;2.20;;;17.80;83.20;;;;;;4993082;28;20363;-68
2022/05/14 09:33:35;;;;;;;20.23;4.32;;;17.90;84.30;;;;;;4992179;28;20033;-69
2022/05/14 09:36:04;;;;;;;19.92;4.22;;;17.90;83.00;;;;;;4991515;28;20545;-68
2022/05/14 09:38:30;;;;;;;22.17;3.38;;;17.90;82.90;;;;;;4992781;28;21619;-69
2022/05/14 09:41:13;;;;;;;24.58;4.85;;;18.00;82.90;;;;;;4992717;28;20046;-69
2022/05/14 09:43:39;;;;;;;19.85;3.95;;;18.00;82.40;;;;;;4990810;28;20050;-69
2022/05/14 09:46:24;;;;;;;10.88;3.30;;;18.10;82.60;;;;;;4988884;28;20022;-68
2022/05/14 09:48:53;;;;;;;20.15;3.38;;;18.20;82.70;;;;;;4992069;28;20057;-69
2022/05/14 09:51:27;;;;;;;26.17;4.43;;;18.10;82.50;;;;;;4992932;28;20382;-69
2022/05/14 09:54:06;;;;;;;20.58;3.60;;;18.20;82.30;;;;;;4992300;28;20390;-69
2022/05/14 09:56:53;;;;;;;13.05;3.42;;;18.20;82.20;;;;;;4991256;28;20146;-68
2022/05/14 09:59:48;;;;;;;24.13;3.97;;;18.30;82.30;;;;;;4992636;28;20073;-68
2022/05/14 10:02:25;;;;;;;19.30;3.90;;;18.30;82.10;;;;;;4991802;28;20478;-68
2022/05/14 10:05:05;;;;;;;21.27;3.60;;;18.30;81.90;;;;;;4990847;28;20068;-68
2022/05/14 10:07:39;;;;;;;25.63;3.85;;;18.40;82.20;;;;;;4992510;28;20042;-72
2022/05/14 10:10:26;;;;;;;20.60;4.10;;;18.40;83.20;;;;;;4990604;28;20037;-71
2022/05/14 10:13:04;;;;;;;32.00;5.32;;;18.50;82.20;;;;;;4992094;28;20073;-73
2022/05/14 10:15:57;;;;;;;15.77;3.38;;;18.40;81.90;;;;;;4992628;28;20041;-72
2022/05/14 10:18:41;;;;;;;24.27;4.25;;;18.40;82.80;;;;;;4992732;28;20041;-73
2022/05/14 10:21:13;;;;;;;17.95;4.75;;;18.50;81.80;;;;;;4991925;28;20073;-69
2022/05/14 10:27:28;;;;;;;19.23;3.80;;;18.50;80.50;;;;;;4979874;28;20030;-69
2022/05/14 10:30:02;;;;;;;18.48;4.20;;;18.70;80.10;;;;;;4990369;28;20025;-70
2022/05/14 10:32:32;;;;;;;;;;;18.70;82.10;;;;;;4992123;28;20488;-70
2022/05/14 10:35:50;;;;;;;19.77;3.65;;;18.70;82.20;;;;;;4991214;28;19964;-71
2022/05/14 10:38:36;;;;;;;16.60;2.53;;;18.70;82.00;;;;;;4974022;28;20125;-70
2022/05/14 10:41:06;;;;;;;15.82;3.58;;;18.80;83.30;;;;;;4992388;28;20452;-70
2022/05/14 10:43:39;;;;;;;24.45;4.78;;;18.70;82.60;;;;;;4991443;28;20501;-70
2022/05/14 10:46:10;;;;;;;26.63;3.67;;;18.80;80.60;;;;;;4990440;28;20488;-70
2022/05/14 10:48:53;;;;;;;22.88;4.18;;;18.80;81.70;;;;;;4991783;28;20039;-71
2022/05/14 10:51:28;;;;;;;21.88;4.35;;;18.80;80.20;;;;;;4990614;28;20065;-70
2022/05/14 10:53:55;;;;;;;29.88;4.28;;;18.90;79.20;;;;;;4990289;28;20115;-70
2022/05/14 10:56:35;;;;;;;24.90;4.38;;;18.90;78.90;;;;;;4992292;28;20026;-70
2022/05/14 10:59:10;;;;;;;19.20;6.25;;;19.00;80.30;;;;;;4989014;28;20197;-71
2022/05/14 11:01:46;;;;;;;25.80;5.00;;;19.10;78.70;;;;;;4990426;28;20478;-70
2022/05/14 11:04:15;;;;;;;8.50;1.33;;;19.10;79.40;;;;;;4991709;28;20045;-71
2022/05/14 11:07:08;;;;;;;11.98;3.15;;;19.20;82.10;;;;;;4990505;28;20058;-69
2022/05/14 11:09:39;;;;;;;20.17;3.85;;;19.20;81.70;;;;;;4991556;28;20064;-69
2022/05/14 11:12:12;;;;;;;23.40;3.83;;;19.30;81.30;;;;;;4985282;28;20081;-69
2022/05/14 11:14:45;;;;;;;;;;;19.30;80.60;;;;;;4984973;28;20425;-69
2022/05/14 11:17:17;;;;;;;17.43;3.63;;;19.40;81.70;;;;;;4989296;28;20354;-69
2022/05/14 11:19:42;;;;;;;23.20;4.95;;;19.50;81.60;;;;;;4990091;28;20356;-69
2022/05/14 11:22:30;;;;;;;24.98;4.07;;;19.50;81.70;;;;;;4989761;28;20089;-69
2022/05/14 11:24:57;;;;;;;26.95;4.72;;;19.60;80.60;;;;;;4991082;28;20104;-69
2022/05/14 11:27:32;;;;;;;31.65;4.70;;;19.60;80.90;;;;;;4990200;28;20121;-69
2022/05/14 11:30:06;;;;;;;22.85;4.72;;;19.70;79.80;;;;;;4989955;28;20053;-69
2022/05/14 11:32:50;;;;;;;16.75;3.20;;;19.70;79.40;;;;;;4991454;28;20053;-70
2022/05/14 11:35:16;;;;;;;;;;;19.70;79.90;;;;;;4991526;28;20085;-70
2022/05/14 11:37:50;;;;;;;18.17;4.10;;;19.80;81.80;;;;;;4990805;28;20008;-70
2022/05/14 11:40:25;;;;;;;;;;;19.90;79.90;;;;;;4991924;28;20026;-70
2022/05/14 11:43:10;;;;;;;23.08;3.92;;;19.90;81.90;;;;;;4989176;28;19921;-70
2022/05/14 11:45:40;;;;;;;16.58;3.33;;;19.90;81.00;;;;;;4991067;28;20525;-70
2022/05/14 11:48:20;;;;;;;24.50;3.38;;;19.90;81.10;;;;;;4990336;28;20034;-70
2022/05/14 11:51:06;;;;;;;23.85;4.20;;;19.90;82.10;;;;;;4989252;28;20117;-70
2022/05/14 11:53:37;;;;;;;19.55;4.82;;;20.00;80.60;;;;;;4989759;28;20045;-71
2022/05/14 11:56:18;;;;;;;27.73;4.88;;;20.00;79.00;;;;;;4993360;28;20035;-70
2022/05/14 11:58:51;;;;;;;29.58;4.72;;;20.10;77.70;;;;;;4994934;28;20042;-70
2022/05/14 12:01:25;;;;;;;25.30;4.35;;;20.20;78.50;;;;;;4993611;28;20428;-69
2022/05/14 12:03:52;;;;;;;23.10;4.07;;;20.20;79.20;;;;;;4993335;28;20054;-69
2022/05/14 12:06:29;;;;;;;23.70;4.47;;;20.30;79.50;;;;;;4995022;28;20054;-69
2022/05/14 12:09:26;;;;;;;32.90;4.70;;;20.30;79.70;;;;;;4994765;28;20041;-69
2022/05/14 12:12:23;;;;;;;10.27;2.67;;;20.30;79.20;;;;;;4997084;28;20102;-71
2022/05/14 12:14:49;;;;;;;12.63;2.35;;;20.40;80.20;;;;;;4991908;28;20034;-70
2022/05/14 12:17:21;;;;;;;20.20;4.47;;;20.40;80.70;;;;;;4993243;28;20030;-70
2022/05/14 12:19:55;;;;;;;29.67;6.15;;;20.50;78.80;;;;;;4993592;28;20103;-70
2022/05/14 12:22:22;;;;;;;;;;;20.50;78.30;;;;;;4994906;28;20101;-70
2022/05/14 12:25:01;;;;;;;25.40;4.43;;;20.50;78.80;;;;;;4993008;28;19917;-67
2022/05/14 12:27:35;;;;;;;25.27;4.80;;;20.50;78.40;;;;;;4990968;28;20038;-69
2022/05/14 12:30:04;;;;;;;21.55;4.43;;;20.60;76.70;;;;;;4993271;28;20121;-72
2022/05/14 12:35:25;;;;;;;21.90;4.70;;;20.70;77.20;;;;;;4993956;28;20470;-73
2022/05/14 12:37:55;;;;;;;22.98;5.07;;;20.70;77.30;;;;;;4993559;28;20039;-72
2022/05/14 12:40:31;;;;;;;26.15;5.22;;;20.70;77.40;;;;;;4994352;28;20081;-73
2022/05/14 12:42:59;;;;;;;27.33;5.22;;;20.80;77.50;;;;;;4993901;28;20097;-73
2022/05/14 12:45:40;;;;;;;53.22;6.60;;;20.80;77.70;;;;;;4993586;28;20129;-73
2022/05/14 12:48:07;;;;;;;29.42;4.45;;;20.90;77.00;;;;;;4994157;28;20544;-73
2022/05/14 12:50:33;;;;;;;27.35;5.72;;;20.90;78.00;;;;;;4994032;28;20466;-72
2022/05/14 12:53:02;;;;;;;20.05;3.65;;;21.00;76.80;;;;;;4992837;28;20036;-73
2022/05/14 12:55:35;;;;;;;21.10;4.75;;;21.00;76.10;;;;;;4993775;28;20026;-73
2022/05/14 12:58:04;;;;;;;25.65;5.75;;;21.00;76.40;;;;;;4994204;28;20077;-73
2022/05/14 13:00:39;;;;;;;25.42;4.70;;;21.10;76.40;;;;;;4993657;28;20114;-72
2022/05/14 13:03:34;;;;;;;28.55;4.38;;;21.10;76.80;;;;;;4993224;28;20081;-69
2022/05/14 13:06:23;;;;;;;24.48;5.00;;;21.20;76.90;;;;;;4979803;28;20054;-69
2022/05/14 13:08:54;;;;;;;24.20;5.28;;;21.30;76.70;;;;;;4982025;28;20117;-72
2022/05/14 13:11:25;;;;;;;31.33;5.78;;;21.40;76.90;;;;;;4981633;28;20034;-69
2022/05/14 13:14:13;;;;;;;29.90;4.68;;;21.40;74.00;;;;;;4993042;28;20042;-69
2022/05/14 13:16:39;;;;;;;22.35;4.47;;;21.30;74.10;;;;;;4991982;28;20026;-72
2022/05/14 13:19:34;;;;;;;19.85;4.20;;;21.40;74.00;;;;;;4993475;28;20421;-73